Главная страница
METAR-TAF:

METAR-TAF

Аэропорты :

Махачкала, Россия

Уйташ

широта: 42-49-01N, долгота: 047-39-08E, высота над уровнем моря: 4 м

Текущие метеонаблюдения

Эта сводка был подготовлена 33 минут назад, в 21:00 UTC
Ветер 6 Узел от западный-юго-западный
Температура 11°C
Влажность 82%
Давление 1018 hPa
Видимость 10 км и более

METAR: URML 202100Z 25003MPS 9999 NSC 11/08 Q1018 R14/01//70 TEMPO 0500 FG BKN002 RMK QFE763/1018

Время: 00:33 (21:33 UTC)

Прогноз

Эта сводка был подготовлена 1 час и 33 минут назад, в 20:00 UTC
Прогноз действительный с 20-го 21 UTC до 21-го 06 UTC
Ветер 6 Узел от западный с порывами до 16 Узел
Видимость: 3100 м
Отдельные облака на высоте 700 фута
Рассеянная облачность на высоте 1100 фута
дымка
временами
С 20-го 21 UTC до 20-го 24 UTC
Видимость: 0500 м
Рассеянная облачность на высоте 200 фута
туман

TAF: URML 202000Z 2021/2106 27003G08MPS 3100 BR SCT007 BKN011 TEMPO 2021/2024 0500 FG BKN002

Метеонаблюдения и прогнозы для более 4000 аэропортов (сводки METAR и TAF).

Имеющиеся станции представлены на карте желтыми и красными точками.

Чтобы увидеть название станции, наведите на нее мышь.

Затем щелкните, чтобы увидеть метеонаблюдения и метеопрогнозы.

Управление картой: чтобы увеличить масштаб, щелкните зеленые кнопки с черным крестиком; чтобы уменьшить масштаб, щелкните зеленую кнопку с тире; для просмотра соседних карт щелкайте зеленые стрелки.


METAR-TAF: